sensor_id;sensor_type;location;lat;lon;timestamp;P1;durP1;ratioP1;P2;durP2;ratioP2
56893;SDS011;43392;50.078;13.704;2022-12-18T00:00:05;67.33;;;31.97;;
56893;SDS011;43392;50.078;13.704;2022-12-18T00:02:32;59.58;;;25.10;;
56893;SDS011;43392;50.078;13.704;2022-12-18T00:04:59;57.80;;;26.57;;
56893;SDS011;43392;50.078;13.704;2022-12-18T00:07:25;61.33;;;25.87;;
56893;SDS011;43392;50.078;13.704;2022-12-18T00:09:52;68.10;;;28.97;;
56893;SDS011;43392;50.078;13.704;2022-12-18T00:12:18;72.60;;;33.03;;
56893;SDS011;43392;50.078;13.704;2022-12-18T00:14:45;75.47;;;32.10;;
56893;SDS011;43392;50.078;13.704;2022-12-18T00:17:13;82.43;;;36.20;;
56893;SDS011;43392;50.078;13.704;2022-12-18T00:19:39;77.50;;;33.53;;
56893;SDS011;43392;50.078;13.704;2022-12-18T00:22:06;89.40;;;35.27;;
56893;SDS011;43392;50.078;13.704;2022-12-18T00:24:32;82.43;;;35.20;;
56893;SDS011;43392;50.078;13.704;2022-12-18T00:26:59;99.27;;;32.50;;
56893;SDS011;43392;50.078;13.704;2022-12-18T00:29:25;115.23;;;32.83;;
56893;SDS011;43392;50.078;13.704;2022-12-18T00:31:52;165.10;;;35.33;;
56893;SDS011;43392;50.078;13.704;2022-12-18T00:34:20;91.27;;;31.67;;
56893;SDS011;43392;50.078;13.704;2022-12-18T00:36:47;83.23;;;31.23;;
56893;SDS011;43392;50.078;13.704;2022-12-18T00:39:14;84.33;;;33.80;;
56893;SDS011;43392;50.078;13.704;2022-12-18T00:41:40;74.53;;;30.60;;
56893;SDS011;43392;50.078;13.704;2022-12-18T00:44:33;82.00;;;31.30;;
56893;SDS011;43392;50.078;13.704;2022-12-18T00:47:00;82.47;;;31.77;;
56893;SDS011;43392;50.078;13.704;2022-12-18T00:49:27;79.27;;;30.07;;
56893;SDS011;43392;50.078;13.704;2022-12-18T00:51:54;70.27;;;30.27;;
56893;SDS011;43392;50.078;13.704;2022-12-18T00:54:21;79.17;;;30.30;;
56893;SDS011;43392;50.078;13.704;2022-12-18T00:56:47;84.77;;;35.63;;
56893;SDS011;43392;50.078;13.704;2022-12-18T00:59:14;80.57;;;33.63;;
56893;SDS011;43392;50.078;13.704;2022-12-18T01:01:40;77.63;;;30.50;;
56893;SDS011;43392;50.078;13.704;2022-12-18T01:04:07;66.83;;;30.30;;
56893;SDS011;43392;50.078;13.704;2022-12-18T01:06:35;83.93;;;33.30;;
56893;SDS011;43392;50.078;13.704;2022-12-18T01:09:02;68.17;;;27.57;;
56893;SDS011;43392;50.078;13.704;2022-12-18T01:11:29;105.80;;;30.67;;
56893;SDS011;43392;50.078;13.704;2022-12-18T01:13:56;111.27;;;31.63;;
56893;SDS011;43392;50.078;13.704;2022-12-18T01:16:22;71.30;;;28.50;;
56893;SDS011;43392;50.078;13.704;2022-12-18T01:18:51;64.27;;;27.43;;
56893;SDS011;43392;50.078;13.704;2022-12-18T01:21:18;58.90;;;26.63;;
56893;SDS011;43392;50.078;13.704;2022-12-18T01:23:46;60.80;;;27.37;;
56893;SDS011;43392;50.078;13.704;2022-12-18T01:26:16;70.70;;;29.23;;
56893;SDS011;43392;50.078;13.704;2022-12-18T01:28:43;74.17;;;30.23;;
56893;SDS011;43392;50.078;13.704;2022-12-18T01:31:11;71.43;;;30.13;;
56893;SDS011;43392;50.078;13.704;2022-12-18T01:33:39;70.03;;;29.30;;
56893;SDS011;43392;50.078;13.704;2022-12-18T01:36:06;79.97;;;31.97;;
56893;SDS011;43392;50.078;13.704;2022-12-18T01:38:33;75.73;;;31.87;;
56893;SDS011;43392;50.078;13.704;2022-12-18T01:41:01;66.40;;;30.40;;
56893;SDS011;43392;50.078;13.704;2022-12-18T01:43:41;60.27;;;27.10;;
56893;SDS011;43392;50.078;13.704;2022-12-18T01:46:08;69.50;;;31.53;;
56893;SDS011;43392;50.078;13.704;2022-12-18T01:48:35;80.63;;;36.63;;
56893;SDS011;43392;50.078;13.704;2022-12-18T01:51:02;87.60;;;36.73;;
56893;SDS011;43392;50.078;13.704;2022-12-18T01:53:32;69.87;;;32.07;;
56893;SDS011;43392;50.078;13.704;2022-12-18T01:55:58;72.60;;;32.00;;
56893;SDS011;43392;50.078;13.704;2022-12-18T01:58:27;69.30;;;31.40;;
56893;SDS011;43392;50.078;13.704;2022-12-18T02:00:58;63.50;;;31.00;;
56893;SDS011;43392;50.078;13.704;2022-12-18T02:03:25;67.27;;;31.10;;
56893;SDS011;43392;50.078;13.704;2022-12-18T02:05:53;61.77;;;28.17;;
56893;SDS011;43392;50.078;13.704;2022-12-18T02:08:27;70.13;;;31.43;;
56893;SDS011;43392;50.078;13.704;2022-12-18T02:11:02;76.37;;;33.47;;
56893;SDS011;43392;50.078;13.704;2022-12-18T02:13:36;76.50;;;32.47;;
56893;SDS011;43392;50.078;13.704;2022-12-18T02:16:11;71.97;;;31.83;;
56893;SDS011;43392;50.078;13.704;2022-12-18T02:18:47;75.43;;;34.17;;
56893;SDS011;43392;50.078;13.704;2022-12-18T02:21:20;76.30;;;33.63;;
56893;SDS011;43392;50.078;13.704;2022-12-18T02:23:56;79.77;;;37.07;;
56893;SDS011;43392;50.078;13.704;2022-12-18T02:26:33;95.07;;;37.03;;
56893;SDS011;43392;50.078;13.704;2022-12-18T02:29:04;75.67;;;33.53;;
56893;SDS011;43392;50.078;13.704;2022-12-18T02:31:35;77.63;;;33.27;;
56893;SDS011;43392;50.078;13.704;2022-12-18T02:34:06;72.67;;;32.83;;
56893;SDS011;43392;50.078;13.704;2022-12-18T02:36:34;77.63;;;32.67;;
56893;SDS011;43392;50.078;13.704;2022-12-18T02:39:04;80.22;;;32.28;;
56893;SDS011;43392;50.078;13.704;2022-12-18T02:41:34;75.13;;;31.50;;
56893;SDS011;43392;50.078;13.704;2022-12-18T02:44:06;68.53;;;31.90;;
56893;SDS011;43392;50.078;13.704;2022-12-18T02:46:35;73.00;;;33.20;;
56893;SDS011;43392;50.078;13.704;2022-12-18T02:49:06;75.78;;;32.13;;
56893;SDS011;43392;50.078;13.704;2022-12-18T02:51:44;50.67;;;23.87;;
56893;SDS011;43392;50.078;13.704;2022-12-18T02:54:20;37.93;;;19.40;;
56893;SDS011;43392;50.078;13.704;2022-12-18T02:56:57;40.97;;;22.73;;
56893;SDS011;43392;50.078;13.704;2022-12-18T02:59:29;40.97;;;17.90;;
56893;SDS011;43392;50.078;13.704;2022-12-18T03:02:09;35.37;;;15.27;;
56893;SDS011;43392;50.078;13.704;2022-12-18T03:04:46;37.73;;;17.23;;
56893;SDS011;43392;50.078;13.704;2022-12-18T03:07:20;30.77;;;14.47;;
56893;SDS011;43392;50.078;13.704;2022-12-18T03:09:52;34.90;;;14.77;;
56893;SDS011;43392;50.078;13.704;2022-12-18T03:12:23;41.10;;;16.57;;
56893;SDS011;43392;50.078;13.704;2022-12-18T03:14:56;41.30;;;15.90;;
56893;SDS011;43392;50.078;13.704;2022-12-18T03:17:28;34.03;;;15.10;;
56893;SDS011;43392;50.078;13.704;2022-12-18T03:19:58;33.38;;;15.00;;
56893;SDS011;43392;50.078;13.704;2022-12-18T03:22:29;36.40;;;16.70;;
56893;SDS011;43392;50.078;13.704;2022-12-18T03:24:59;37.40;;;16.33;;
56893;SDS011;43392;50.078;13.704;2022-12-18T03:27:30;36.77;;;16.80;;
56893;SDS011;43392;50.078;13.704;2022-12-18T03:30:00;37.63;;;16.17;;
56893;SDS011;43392;50.078;13.704;2022-12-18T03:32:33;35.43;;;17.10;;
56893;SDS011;43392;50.078;13.704;2022-12-18T03:35:04;39.50;;;16.20;;
56893;SDS011;43392;50.078;13.704;2022-12-18T03:37:33;37.00;;;16.67;;
56893;SDS011;43392;50.078;13.704;2022-12-18T03:40:00;40.20;;;19.37;;
56893;SDS011;43392;50.078;13.704;2022-12-18T03:42:27;38.87;;;18.77;;
56893;SDS011;43392;50.078;13.704;2022-12-18T03:45:02;42.23;;;18.50;;
56893;SDS011;43392;50.078;13.704;2022-12-18T03:47:39;39.97;;;16.60;;
56893;SDS011;43392;50.078;13.704;2022-12-18T03:50:17;38.83;;;16.77;;
56893;SDS011;43392;50.078;13.704;2022-12-18T03:52:48;40.00;;;16.73;;
56893;SDS011;43392;50.078;13.704;2022-12-18T03:55:18;44.70;;;18.52;;
56893;SDS011;43392;50.078;13.704;2022-12-18T03:57:49;38.03;;;15.63;;
56893;SDS011;43392;50.078;13.704;2022-12-18T04:00:18;41.92;;;17.13;;
56893;SDS011;43392;50.078;13.704;2022-12-18T04:02:48;41.27;;;17.80;;
56893;SDS011;43392;50.078;13.704;2022-12-18T04:05:17;42.37;;;17.43;;
56893;SDS011;43392;50.078;13.704;2022-12-18T04:07:45;38.77;;;15.80;;
56893;SDS011;43392;50.078;13.704;2022-12-18T04:10:14;42.33;;;18.23;;
56893;SDS011;43392;50.078;13.704;2022-12-18T04:12:42;46.50;;;19.80;;
56893;SDS011;43392;50.078;13.704;2022-12-18T04:15:11;45.13;;;16.83;;
56893;SDS011;43392;50.078;13.704;2022-12-18T04:17:39;38.47;;;16.33;;
56893;SDS011;43392;50.078;13.704;2022-12-18T04:20:13;42.87;;;17.60;;
56893;SDS011;43392;50.078;13.704;2022-12-18T04:22:39;41.43;;;16.63;;
56893;SDS011;43392;50.078;13.704;2022-12-18T04:25:06;48.70;;;18.63;;
56893;SDS011;43392;50.078;13.704;2022-12-18T04:27:33;40.60;;;18.17;;
56893;SDS011;43392;50.078;13.704;2022-12-18T04:30:00;48.10;;;18.50;;
56893;SDS011;43392;50.078;13.704;2022-12-18T04:32:28;51.60;;;20.60;;
56893;SDS011;43392;50.078;13.704;2022-12-18T04:34:54;47.53;;;21.13;;
56893;SDS011;43392;50.078;13.704;2022-12-18T04:37:21;51.93;;;21.30;;
56893;SDS011;43392;50.078;13.704;2022-12-18T04:39:47;56.57;;;22.60;;
56893;SDS011;43392;50.078;13.704;2022-12-18T04:42:14;59.20;;;26.43;;
56893;SDS011;43392;50.078;13.704;2022-12-18T04:44:41;60.57;;;26.70;;
56893;SDS011;43392;50.078;13.704;2022-12-18T04:47:07;66.03;;;29.13;;
56893;SDS011;43392;50.078;13.704;2022-12-18T04:49:35;74.30;;;29.90;;
56893;SDS011;43392;50.078;13.704;2022-12-18T04:52:02;71.47;;;29.13;;
56893;SDS011;43392;50.078;13.704;2022-12-18T04:54:28;64.50;;;28.20;;
56893;SDS011;43392;50.078;13.704;2022-12-18T04:56:55;65.63;;;26.93;;
56893;SDS011;43392;50.078;13.704;2022-12-18T04:59:21;62.40;;;26.37;;
56893;SDS011;43392;50.078;13.704;2022-12-18T05:01:48;54.43;;;22.90;;
56893;SDS011;43392;50.078;13.704;2022-12-18T05:04:14;61.10;;;25.80;;
56893;SDS011;43392;50.078;13.704;2022-12-18T05:06:42;73.97;;;27.73;;
56893;SDS011;43392;50.078;13.704;2022-12-18T05:09:09;65.97;;;25.67;;
56893;SDS011;43392;50.078;13.704;2022-12-18T05:11:35;74.43;;;27.90;;
56893;SDS011;43392;50.078;13.704;2022-12-18T05:14:02;73.40;;;27.23;;
56893;SDS011;43392;50.078;13.704;2022-12-18T05:16:28;54.20;;;24.07;;
56893;SDS011;43392;50.078;13.704;2022-12-18T05:18:55;64.07;;;23.50;;
56893;SDS011;43392;50.078;13.704;2022-12-18T05:21:21;61.17;;;25.33;;
56893;SDS011;43392;50.078;13.704;2022-12-18T05:23:49;68.60;;;25.73;;
56893;SDS011;43392;50.078;13.704;2022-12-18T05:26:16;70.90;;;25.90;;
56893;SDS011;43392;50.078;13.704;2022-12-18T05:28:44;67.50;;;22.57;;
56893;SDS011;43392;50.078;13.704;2022-12-18T05:31:11;61.83;;;19.93;;
56893;SDS011;43392;50.078;13.704;2022-12-18T05:33:37;56.50;;;21.37;;
56893;SDS011;43392;50.078;13.704;2022-12-18T05:36:05;56.47;;;21.67;;
56893;SDS011;43392;50.078;13.704;2022-12-18T05:38:34;58.10;;;22.73;;
56893;SDS011;43392;50.078;13.704;2022-12-18T05:41:03;58.80;;;23.03;;
56893;SDS011;43392;50.078;13.704;2022-12-18T05:43:31;58.97;;;24.13;;
56893;SDS011;43392;50.078;13.704;2022-12-18T05:46:02;54.73;;;19.53;;
56893;SDS011;43392;50.078;13.704;2022-12-18T05:48:30;52.10;;;20.13;;
56893;SDS011;43392;50.078;13.704;2022-12-18T05:51:02;50.17;;;19.57;;
56893;SDS011;43392;50.078;13.704;2022-12-18T05:53:30;47.23;;;19.67;;
56893;SDS011;43392;50.078;13.704;2022-12-18T05:55:59;51.37;;;20.87;;
56893;SDS011;43392;50.078;13.704;2022-12-18T05:58:27;46.75;;;19.25;;
56893;SDS011;43392;50.078;13.704;2022-12-18T06:00:55;51.70;;;20.53;;
56893;SDS011;43392;50.078;13.704;2022-12-18T06:03:21;54.20;;;21.77;;
56893;SDS011;43392;50.078;13.704;2022-12-18T06:05:48;56.87;;;23.17;;
56893;SDS011;43392;50.078;13.704;2022-12-18T06:08:14;54.90;;;23.27;;
56893;SDS011;43392;50.078;13.704;2022-12-18T06:10:41;57.50;;;24.43;;
56893;SDS011;43392;50.078;13.704;2022-12-18T06:13:08;67.03;;;26.30;;
56893;SDS011;43392;50.078;13.704;2022-12-18T06:15:37;56.27;;;23.70;;
56893;SDS011;43392;50.078;13.704;2022-12-18T06:18:04;54.87;;;22.70;;
56893;SDS011;43392;50.078;13.704;2022-12-18T06:20:30;50.73;;;22.03;;
56893;SDS011;43392;50.078;13.704;2022-12-18T06:22:57;50.87;;;19.90;;
56893;SDS011;43392;50.078;13.704;2022-12-18T06:25:23;51.03;;;18.40;;
56893;SDS011;43392;50.078;13.704;2022-12-18T06:27:50;43.03;;;17.73;;
56893;SDS011;43392;50.078;13.704;2022-12-18T06:30:17;55.33;;;20.00;;
56893;SDS011;43392;50.078;13.704;2022-12-18T06:32:45;45.00;;;19.50;;
56893;SDS011;43392;50.078;13.704;2022-12-18T06:35:11;46.10;;;17.53;;
56893;SDS011;43392;50.078;13.704;2022-12-18T06:37:38;55.23;;;17.50;;
56893;SDS011;43392;50.078;13.704;2022-12-18T06:40:05;38.87;;;17.80;;
56893;SDS011;43392;50.078;13.704;2022-12-18T06:42:32;41.23;;;16.57;;
56893;SDS011;43392;50.078;13.704;2022-12-18T06:44:59;43.70;;;17.80;;
56893;SDS011;43392;50.078;13.704;2022-12-18T06:47:25;52.80;;;18.07;;
56893;SDS011;43392;50.078;13.704;2022-12-18T06:49:53;43.03;;;16.90;;
56893;SDS011;43392;50.078;13.704;2022-12-18T06:52:20;43.77;;;16.13;;
56893;SDS011;43392;50.078;13.704;2022-12-18T06:54:46;48.77;;;17.07;;
56893;SDS011;43392;50.078;13.704;2022-12-18T06:57:13;42.17;;;16.10;;
56893;SDS011;43392;50.078;13.704;2022-12-18T06:59:39;44.23;;;16.83;;
56893;SDS011;43392;50.078;13.704;2022-12-18T07:02:06;52.70;;;17.93;;
56893;SDS011;43392;50.078;13.704;2022-12-18T07:04:32;46.57;;;17.07;;
56893;SDS011;43392;50.078;13.704;2022-12-18T07:07:00;38.70;;;15.77;;
56893;SDS011;43392;50.078;13.704;2022-12-18T07:09:27;43.47;;;16.37;;
56893;SDS011;43392;50.078;13.704;2022-12-18T07:11:53;43.63;;;17.43;;
56893;SDS011;43392;50.078;13.704;2022-12-18T07:14:20;54.67;;;22.67;;
56893;SDS011;43392;50.078;13.704;2022-12-18T07:16:46;54.83;;;23.47;;
56893;SDS011;43392;50.078;13.704;2022-12-18T07:19:13;64.57;;;29.03;;
56893;SDS011;43392;50.078;13.704;2022-12-18T07:21:40;62.97;;;25.93;;
56893;SDS011;43392;50.078;13.704;2022-12-18T07:24:08;52.13;;;23.77;;
56893;SDS011;43392;50.078;13.704;2022-12-18T07:26:34;66.20;;;24.13;;
56893;SDS011;43392;50.078;13.704;2022-12-18T07:29:01;64.23;;;23.40;;
56893;SDS011;43392;50.078;13.704;2022-12-18T07:31:27;59.97;;;22.40;;
56893;SDS011;43392;50.078;13.704;2022-12-18T07:33:54;58.73;;;21.87;;
56893;SDS011;43392;50.078;13.704;2022-12-18T07:36:22;62.67;;;21.70;;
56893;SDS011;43392;50.078;13.704;2022-12-18T07:38:49;60.10;;;22.17;;
56893;SDS011;43392;50.078;13.704;2022-12-18T07:41:18;69.80;;;25.63;;
56893;SDS011;43392;50.078;13.704;2022-12-18T07:43:45;83.93;;;29.23;;
56893;SDS011;43392;50.078;13.704;2022-12-18T07:46:12;75.60;;;29.97;;
56893;SDS011;43392;50.078;13.704;2022-12-18T07:48:40;73.20;;;29.23;;
56893;SDS011;43392;50.078;13.704;2022-12-18T07:51:07;87.50;;;29.33;;
56893;SDS011;43392;50.078;13.704;2022-12-18T07:53:34;81.23;;;30.27;;
56893;SDS011;43392;50.078;13.704;2022-12-18T07:56:02;96.40;;;32.23;;
56893;SDS011;43392;50.078;13.704;2022-12-18T07:58:32;94.90;;;32.77;;
56893;SDS011;43392;50.078;13.704;2022-12-18T08:01:03;78.30;;;29.13;;
56893;SDS011;43392;50.078;13.704;2022-12-18T08:03:31;95.77;;;28.87;;
56893;SDS011;43392;50.078;13.704;2022-12-18T08:05:58;87.67;;;25.97;;
56893;SDS011;43392;50.078;13.704;2022-12-18T08:08:26;79.37;;;25.47;;
56893;SDS011;43392;50.078;13.704;2022-12-18T08:10:52;78.17;;;22.27;;
56893;SDS011;43392;50.078;13.704;2022-12-18T08:13:19;71.87;;;20.20;;
56893;SDS011;43392;50.078;13.704;2022-12-18T08:15:48;93.67;;;20.63;;
56893;SDS011;43392;50.078;13.704;2022-12-18T08:18:21;84.47;;;20.33;;
56893;SDS011;43392;50.078;13.704;2022-12-18T08:20:48;52.67;;;19.93;;
56893;SDS011;43392;50.078;13.704;2022-12-18T08:23:14;53.00;;;17.47;;
56893;SDS011;43392;50.078;13.704;2022-12-18T08:25:41;60.67;;;19.33;;
56893;SDS011;43392;50.078;13.704;2022-12-18T08:28:08;60.33;;;21.30;;
56893;SDS011;43392;50.078;13.704;2022-12-18T08:30:35;65.97;;;21.60;;
56893;SDS011;43392;50.078;13.704;2022-12-18T08:33:03;76.10;;;28.13;;
56893;SDS011;43392;50.078;13.704;2022-12-18T08:35:29;64.60;;;23.43;;
56893;SDS011;43392;50.078;13.704;2022-12-18T08:37:56;72.57;;;19.07;;
56893;SDS011;43392;50.078;13.704;2022-12-18T08:40:22;64.00;;;20.40;;
56893;SDS011;43392;50.078;13.704;2022-12-18T08:42:49;71.17;;;22.00;;
56893;SDS011;43392;50.078;13.704;2022-12-18T08:45:33;72.73;;;22.03;;
56893;SDS011;43392;50.078;13.704;2022-12-18T08:48:00;110.13;;;21.90;;
56893;SDS011;43392;50.078;13.704;2022-12-18T08:50:28;66.03;;;20.80;;
56893;SDS011;43392;50.078;13.704;2022-12-18T08:52:54;54.37;;;20.83;;
56893;SDS011;43392;50.078;13.704;2022-12-18T08:55:21;76.87;;;23.30;;
56893;SDS011;43392;50.078;13.704;2022-12-18T08:57:47;66.03;;;21.87;;
56893;SDS011;43392;50.078;13.704;2022-12-18T09:00:14;62.00;;;18.87;;
56893;SDS011;43392;50.078;13.704;2022-12-18T09:02:41;71.60;;;23.73;;
56893;SDS011;43392;50.078;13.704;2022-12-18T09:05:08;70.83;;;23.07;;
56893;SDS011;43392;50.078;13.704;2022-12-18T09:07:36;88.50;;;28.37;;
56893;SDS011;43392;50.078;13.704;2022-12-18T09:10:03;68.10;;;23.83;;
56893;SDS011;43392;50.078;13.704;2022-12-18T09:12:30;83.13;;;26.13;;
56893;SDS011;43392;50.078;13.704;2022-12-18T09:14:57;67.67;;;23.63;;
56893;SDS011;43392;50.078;13.704;2022-12-18T09:17:23;82.40;;;28.93;;
56893;SDS011;43392;50.078;13.704;2022-12-18T09:19:50;85.50;;;28.53;;
56893;SDS011;43392;50.078;13.704;2022-12-18T09:22:17;65.87;;;23.40;;
56893;SDS011;43392;50.078;13.704;2022-12-18T09:24:44;73.20;;;23.03;;
56893;SDS011;43392;50.078;13.704;2022-12-18T09:27:11;76.03;;;27.17;;
56893;SDS011;43392;50.078;13.704;2022-12-18T09:29:38;83.47;;;27.83;;
56893;SDS011;43392;50.078;13.704;2022-12-18T09:32:04;95.63;;;28.27;;
56893;SDS011;43392;50.078;13.704;2022-12-18T09:34:31;93.27;;;23.47;;
56893;SDS011;43392;50.078;13.704;2022-12-18T09:36:57;80.70;;;22.07;;
56893;SDS011;43392;50.078;13.704;2022-12-18T09:39:24;61.53;;;21.13;;
56893;SDS011;43392;50.078;13.704;2022-12-18T09:41:52;64.70;;;22.93;;
56893;SDS011;43392;50.078;13.704;2022-12-18T09:44:22;67.38;;;25.20;;
56893;SDS011;43392;50.078;13.704;2022-12-18T09:47:00;71.90;;;23.50;;
56893;SDS011;43392;50.078;13.704;2022-12-18T09:49:30;60.23;;;21.90;;
56893;SDS011;43392;50.078;13.704;2022-12-18T09:52:02;72.00;;;23.50;;
56893;SDS011;43392;50.078;13.704;2022-12-18T09:54:32;72.47;;;24.60;;
56893;SDS011;43392;50.078;13.704;2022-12-18T09:57:05;83.10;;;24.57;;
56893;SDS011;43392;50.078;13.704;2022-12-18T09:59:34;108.27;;;26.37;;
56893;SDS011;43392;50.078;13.704;2022-12-18T10:02:14;67.70;;;21.33;;
56893;SDS011;43392;50.078;13.704;2022-12-18T10:04:42;92.93;;;28.47;;
56893;SDS011;43392;50.078;13.704;2022-12-18T10:07:10;126.10;;;45.60;;
56893;SDS011;43392;50.078;13.704;2022-12-18T10:09:46;80.40;;;29.53;;
56893;SDS011;43392;50.078;13.704;2022-12-18T10:12:23;69.93;;;23.57;;
56893;SDS011;43392;50.078;13.704;2022-12-18T10:14:54;81.53;;;26.00;;
56893;SDS011;43392;50.078;13.704;2022-12-18T10:17:26;76.73;;;26.73;;
56893;SDS011;43392;50.078;13.704;2022-12-18T10:20:02;82.10;;;27.37;;
56893;SDS011;43392;50.078;13.704;2022-12-18T10:22:44;81.10;;;26.37;;
56893;SDS011;43392;50.078;13.704;2022-12-18T10:25:21;77.30;;;25.67;;
56893;SDS011;43392;50.078;13.704;2022-12-18T10:27:53;102.80;;;28.27;;
56893;SDS011;43392;50.078;13.704;2022-12-18T10:30:23;89.93;;;26.37;;
56893;SDS011;43392;50.078;13.704;2022-12-18T10:32:52;88.33;;;26.87;;
56893;SDS011;43392;50.078;13.704;2022-12-18T10:35:20;101.67;;;35.40;;
56893;SDS011;43392;50.078;13.704;2022-12-18T10:38:04;74.87;;;25.53;;
56893;SDS011;43392;50.078;13.704;2022-12-18T10:40:36;91.67;;;26.13;;
56893;SDS011;43392;50.078;13.704;2022-12-18T10:43:19;87.60;;;24.87;;
56893;SDS011;43392;50.078;13.704;2022-12-18T10:48:53;81.83;;;25.07;;
56893;SDS011;43392;50.078;13.704;2022-12-18T10:51:22;78.00;;;24.60;;
56893;SDS011;43392;50.078;13.704;2022-12-18T10:53:51;73.00;;;23.30;;
56893;SDS011;43392;50.078;13.704;2022-12-18T10:56:21;72.15;;;22.98;;
56893;SDS011;43392;50.078;13.704;2022-12-18T10:58:56;65.90;;;23.07;;
56893;SDS011;43392;50.078;13.704;2022-12-18T11:01:25;60.17;;;22.90;;
56893;SDS011;43392;50.078;13.704;2022-12-18T11:03:59;74.73;;;24.97;;
56893;SDS011;43392;50.078;13.704;2022-12-18T11:06:28;62.87;;;24.07;;
56893;SDS011;43392;50.078;13.704;2022-12-18T11:08:58;66.00;;;23.23;;
56893;SDS011;43392;50.078;13.704;2022-12-18T11:11:27;72.03;;;24.67;;
56893;SDS011;43392;50.078;13.704;2022-12-18T11:13:57;67.80;;;22.70;;
56893;SDS011;43392;50.078;13.704;2022-12-18T11:16:27;65.17;;;22.20;;
56893;SDS011;43392;50.078;13.704;2022-12-18T11:18:57;65.87;;;23.63;;
56893;SDS011;43392;50.078;13.704;2022-12-18T11:21:41;64.63;;;23.03;;
56893;SDS011;43392;50.078;13.704;2022-12-18T11:24:14;74.97;;;24.00;;
56893;SDS011;43392;50.078;13.704;2022-12-18T11:26:47;68.63;;;24.87;;
56893;SDS011;43392;50.078;13.704;2022-12-18T11:29:17;63.90;;;23.07;;
56893;SDS011;43392;50.078;13.704;2022-12-18T11:31:48;65.17;;;22.73;;
56893;SDS011;43392;50.078;13.704;2022-12-18T11:34:16;60.13;;;22.70;;
56893;SDS011;43392;50.078;13.704;2022-12-18T11:36:48;66.93;;;23.87;;
56893;SDS011;43392;50.078;13.704;2022-12-18T11:39:17;63.70;;;24.53;;
56893;SDS011;43392;50.078;13.704;2022-12-18T11:41:48;59.85;;;20.95;;
56893;SDS011;43392;50.078;13.704;2022-12-18T11:44:40;64.30;;;22.63;;
56893;SDS011;43392;50.078;13.704;2022-12-18T11:47:11;65.47;;;23.07;;
56893;SDS011;43392;50.078;13.704;2022-12-18T11:49:45;62.07;;;22.90;;
56893;SDS011;43392;50.078;13.704;2022-12-18T11:52:15;60.80;;;21.80;;
56893;SDS011;43392;50.078;13.704;2022-12-18T11:54:45;57.97;;;20.70;;
56893;SDS011;43392;50.078;13.704;2022-12-18T11:57:14;56.90;;;20.97;;
56893;SDS011;43392;50.078;13.704;2022-12-18T11:59:56;52.07;;;19.67;;
56893;SDS011;43392;50.078;13.704;2022-12-18T12:02:33;63.80;;;22.97;;
56893;SDS011;43392;50.078;13.704;2022-12-18T12:05:20;53.67;;;20.23;;
56893;SDS011;43392;50.078;13.704;2022-12-18T12:07:59;59.37;;;20.77;;
56893;SDS011;43392;50.078;13.704;2022-12-18T12:10:37;49.30;;;21.13;;
56893;SDS011;43392;50.078;13.704;2022-12-18T12:13:19;57.97;;;21.83;;
56893;SDS011;43392;50.078;13.704;2022-12-18T12:16:06;52.97;;;21.13;;
56893;SDS011;43392;50.078;13.704;2022-12-18T12:18:45;59.20;;;22.83;;
56893;SDS011;43392;50.078;13.704;2022-12-18T12:21:22;54.90;;;22.17;;
56893;SDS011;43392;50.078;13.704;2022-12-18T12:23:53;56.90;;;21.57;;
56893;SDS011;43392;50.078;13.704;2022-12-18T12:26:29;53.87;;;21.77;;
56893;SDS011;43392;50.078;13.704;2022-12-18T12:29:05;82.50;;;34.80;;
56893;SDS011;43392;50.078;13.704;2022-12-18T12:31:54;58.13;;;22.37;;
56893;SDS011;43392;50.078;13.704;2022-12-18T12:34:41;51.42;;;21.52;;
56893;SDS011;43392;50.078;13.704;2022-12-18T12:37:15;51.97;;;23.33;;
56893;SDS011;43392;50.078;13.704;2022-12-18T12:39:49;52.87;;;22.07;;
56893;SDS011;43392;50.078;13.704;2022-12-18T12:42:25;55.10;;;21.77;;
56893;SDS011;43392;50.078;13.704;2022-12-18T12:45:15;59.30;;;23.43;;
56893;SDS011;43392;50.078;13.704;2022-12-18T12:47:45;48.67;;;21.07;;
56893;SDS011;43392;50.078;13.704;2022-12-18T12:50:16;60.87;;;21.37;;
56893;SDS011;43392;50.078;13.704;2022-12-18T12:52:45;54.27;;;21.87;;
56893;SDS011;43392;50.078;13.704;2022-12-18T12:55:16;50.67;;;20.70;;
56893;SDS011;43392;50.078;13.704;2022-12-18T12:57:45;46.83;;;17.70;;
56893;SDS011;43392;50.078;13.704;2022-12-18T13:00:18;38.27;;;16.20;;
56893;SDS011;43392;50.078;13.704;2022-12-18T13:02:49;37.63;;;17.53;;
56893;SDS011;43392;50.078;13.704;2022-12-18T13:05:22;61.73;;;23.00;;
56893;SDS011;43392;50.078;13.704;2022-12-18T13:07:53;36.67;;;16.57;;
56893;SDS011;43392;50.078;13.704;2022-12-18T13:10:32;39.03;;;17.13;;
56893;SDS011;43392;50.078;13.704;2022-12-18T13:13:01;40.80;;;18.10;;
56893;SDS011;43392;50.078;13.704;2022-12-18T13:15:30;45.10;;;19.77;;
56893;SDS011;43392;50.078;13.704;2022-12-18T13:20:48;42.53;;;17.10;;
56893;SDS011;43392;50.078;13.704;2022-12-18T13:23:26;45.57;;;20.40;;
56893;SDS011;43392;50.078;13.704;2022-12-18T13:25:55;52.10;;;19.53;;
56893;SDS011;43392;50.078;13.704;2022-12-18T13:28:23;49.40;;;21.10;;
56893;SDS011;43392;50.078;13.704;2022-12-18T13:31:10;49.07;;;20.03;;
56893;SDS011;43392;50.078;13.704;2022-12-18T13:33:39;45.43;;;20.43;;
56893;SDS011;43392;50.078;13.704;2022-12-18T13:36:26;61.27;;;26.93;;
56893;SDS011;43392;50.078;13.704;2022-12-18T13:41:49;44.80;;;18.37;;
56893;SDS011;43392;50.078;13.704;2022-12-18T13:44:30;65.10;;;31.03;;
56893;SDS011;43392;50.078;13.704;2022-12-18T13:49:27;46.07;;;20.77;;
56893;SDS011;43392;50.078;13.704;2022-12-18T13:52:02;34.90;;;14.60;;
56893;SDS011;43392;50.078;13.704;2022-12-18T13:54:37;34.73;;;16.20;;
56893;SDS011;43392;50.078;13.704;2022-12-18T13:57:25;34.57;;;17.87;;
56893;SDS011;43392;50.078;13.704;2022-12-18T13:59:53;38.07;;;18.23;;
56893;SDS011;43392;50.078;13.704;2022-12-18T14:02:20;33.23;;;15.50;;
56893;SDS011;43392;50.078;13.704;2022-12-18T14:04:50;32.07;;;17.00;;
56893;SDS011;43392;50.078;13.704;2022-12-18T14:07:18;36.77;;;17.87;;
56893;SDS011;43392;50.078;13.704;2022-12-18T14:09:47;43.67;;;22.63;;
56893;SDS011;43392;50.078;13.704;2022-12-18T14:12:17;40.63;;;17.50;;
56893;SDS011;43392;50.078;13.704;2022-12-18T14:15:05;52.37;;;23.37;;
56893;SDS011;43392;50.078;13.704;2022-12-18T14:17:39;39.30;;;18.83;;
56893;SDS011;43392;50.078;13.704;2022-12-18T14:20:13;39.47;;;16.57;;
56893;SDS011;43392;50.078;13.704;2022-12-18T14:22:42;71.83;;;33.13;;
56893;SDS011;43392;50.078;13.704;2022-12-18T14:25:15;44.63;;;22.40;;
56893;SDS011;43392;50.078;13.704;2022-12-18T14:27:45;38.00;;;20.47;;
56893;SDS011;43392;50.078;13.704;2022-12-18T14:30:26;37.83;;;17.37;;
56893;SDS011;43392;50.078;13.704;2022-12-18T14:33:01;44.90;;;20.33;;
56893;SDS011;43392;50.078;13.704;2022-12-18T14:35:30;61.43;;;25.33;;